Terminal Aerodrome Forecast
Issued by NWS St Louis, MO

Home | Current Version | Previous Version | Text Only | Print | Product List | Glossary On
Versions: 1 2 3 4 5 6 7 8 9 10 11 12 13 14
000
FTUS43 KLSX 110847 AAA
TAFCOU
TAF AMD
KCOU 110847Z 1109/1206 16012G18KT P6SM OVC030
     FM111500 17013G19KT P6SM VCSH OVC030
     FM112000 20010KT P6SM VCSH OVC010
     FM120000 27008KT P6SM OVC007
     FM120500 31010KT P6SM SCT015=

USA.gov is the U.S. government's official web portal to all federal, state and local government web resources and services.